createdAt,value
2022-10-06T00:00:15.375Z,12.17
2022-10-06T00:01:18.319Z,12.18
2022-10-06T00:02:19.940Z,12.18
2022-10-06T00:03:23.095Z,12.24
2022-10-06T00:04:24.906Z,12.22
2022-10-06T00:05:26.715Z,12.25
2022-10-06T00:06:28.160Z,12.25
2022-10-06T00:07:29.598Z,12.25
2022-10-06T00:08:32.637Z,12.24
2022-10-06T00:09:34.458Z,12.22
2022-10-06T00:10:35.910Z,12.24
2022-10-06T00:11:37.687Z,12.24
2022-10-06T00:12:46.118Z,12.22
2022-10-06T00:13:47.619Z,12.22
2022-10-06T00:14:49.371Z,12.21
2022-10-06T00:15:51.038Z,12.19
2022-10-06T00:16:52.564Z,12.20
2022-10-06T00:17:55.059Z,12.21
2022-10-06T00:18:57.936Z,12.19
2022-10-06T00:19:59.290Z,12.18
2022-10-06T00:21:01.461Z,12.17
2022-10-06T00:22:02.953Z,12.16
2022-10-06T00:23:04.529Z,12.14
2022-10-06T00:24:06.511Z,12.18
2022-10-06T00:25:10.474Z,12.20
2022-10-06T00:26:16.718Z,12.22
2022-10-06T00:27:18.597Z,12.23
2022-10-06T00:28:20.269Z,12.23
2022-10-06T00:29:22.170Z,12.21
2022-10-06T00:30:26.137Z,12.21
2022-10-06T00:31:27.652Z,12.20
2022-10-06T00:32:29.145Z,12.21
2022-10-06T00:33:30.589Z,12.22
2022-10-06T00:34:32.397Z,12.22
2022-10-06T00:35:35.112Z,12.20
2022-10-06T00:36:37.298Z,12.23
2022-10-06T00:37:38.787Z,12.22
2022-10-06T00:38:40.352Z,12.21
2022-10-06T00:39:42.235Z,12.20
2022-10-06T00:40:49.774Z,12.21
2022-10-06T00:41:51.226Z,12.24
2022-10-06T00:43:01.061Z,12.24
2022-10-06T00:44:02.872Z,12.24
2022-10-06T00:45:06.258Z,12.24
2022-10-06T00:46:09.946Z,12.26
2022-10-06T00:47:11.535Z,12.28
2022-10-06T00:48:22.048Z,12.35
2022-10-06T00:49:36.019Z,12.37
2022-10-06T00:50:38.164Z,12.37
2022-10-06T00:51:47.693Z,12.37
2022-10-06T00:52:50.094Z,12.33
2022-10-06T00:53:51.979Z,12.34
2022-10-06T00:54:53.699Z,12.36
2022-10-06T00:55:55.208Z,12.36
2022-10-06T00:56:57.755Z,12.38
2022-10-06T00:58:00.109Z,12.39
2022-10-06T00:59:01.946Z,12.37
2022-10-06T01:00:08.059Z,12.34
2022-10-06T01:01:11.881Z,12.36
2022-10-06T01:02:16.038Z,12.39
2022-10-06T01:03:21.881Z,12.41
2022-10-06T01:04:24.855Z,12.42
2022-10-06T01:05:28.447Z,12.45
2022-10-06T01:06:29.888Z,12.48
2022-10-06T01:07:32.282Z,12.48
2022-10-06T01:08:34.334Z,12.53
2022-10-06T01:09:36.985Z,12.53
2022-10-06T01:10:38.516Z,12.54
2022-10-06T01:11:40.273Z,12.53
2022-10-06T01:12:41.791Z,12.54
2022-10-06T01:13:45.297Z,12.58
2022-10-06T01:14:47.789Z,12.61
2022-10-06T01:16:03.481Z,12.64
2022-10-06T01:17:11.246Z,12.66
2022-10-06T01:18:16.173Z,12.66
2022-10-06T01:19:36.504Z,12.64
2022-10-06T01:20:39.054Z,12.64
2022-10-06T01:21:46.439Z,12.68
2022-10-06T01:22:51.379Z,12.70
2022-10-06T01:23:53.604Z,12.74
2022-10-06T01:24:55.880Z,12.79
2022-10-06T01:25:59.118Z,12.81
2022-10-06T01:27:01.359Z,12.82
2022-10-06T01:28:04.942Z,12.85
2022-10-06T01:29:06.872Z,12.86
2022-10-06T01:30:11.105Z,12.85
2022-10-06T01:31:13.184Z,12.82
2022-10-06T01:32:14.676Z,12.80
2022-10-06T01:33:16.480Z,12.80
2022-10-06T01:34:18.305Z,12.76
2022-10-06T01:35:20.441Z,12.72
2022-10-06T01:36:21.994Z,12.68
2022-10-06T01:37:23.401Z,12.67
2022-10-06T01:38:24.907Z,12.60
2022-10-06T01:39:26.348Z,12.57
2022-10-06T01:40:29.322Z,12.55
2022-10-06T01:41:33.272Z,12.53
2022-10-06T01:42:35.843Z,12.50
2022-10-06T01:43:37.303Z,12.47
2022-10-06T01:44:39.190Z,12.45
2022-10-06T01:45:40.628Z,12.42
2022-10-06T01:46:42.159Z,12.37
2022-10-06T01:47:43.716Z,12.35
2022-10-06T01:48:45.226Z,12.30
2022-10-06T01:49:47.287Z,12.32
2022-10-06T01:50:48.836Z,12.30
2022-10-06T01:51:50.442Z,12.25
2022-10-06T01:52:51.956Z,12.23
2022-10-06T01:53:53.404Z,12.22
2022-10-06T01:54:55.307Z,12.21
2022-10-06T01:56:00.219Z,12.20
2022-10-06T01:57:01.847Z,12.18
2022-10-06T01:58:03.488Z,12.17
2022-10-06T01:59:05.471Z,12.14
2022-10-06T02:00:08.105Z,12.14
2022-10-06T02:01:10.341Z,12.08
2022-10-06T02:02:11.887Z,12.07
2022-10-06T02:03:13.407Z,12.07
2022-10-06T02:04:15.250Z,12.08
2022-10-06T02:05:16.901Z,12.05
2022-10-06T02:06:18.449Z,12.03
2022-10-06T02:07:19.994Z,12.02
2022-10-06T02:08:21.451Z,11.99
2022-10-06T02:09:23.761Z,11.96
2022-10-06T02:10:25.251Z,11.95
2022-10-06T02:11:27.225Z,11.93
2022-10-06T02:12:31.698Z,11.95
2022-10-06T02:13:33.816Z,11.93
2022-10-06T02:14:35.595Z,11.95
2022-10-06T02:15:37.058Z,11.96
2022-10-06T02:16:39.164Z,11.95
2022-10-06T02:17:40.603Z,11.92
2022-10-06T02:18:42.534Z,11.91
2022-10-06T02:19:44.036Z,11.91
2022-10-06T02:20:45.484Z,11.89
2022-10-06T02:21:46.980Z,11.88
2022-10-06T02:22:48.607Z,11.88
2022-10-06T02:23:50.788Z,11.91
2022-10-06T02:24:52.239Z,11.90
2022-10-06T02:26:05.020Z,11.89
2022-10-06T02:27:06.953Z,11.89
2022-10-06T02:28:08.508Z,11.92
2022-10-06T02:29:10.356Z,11.93
2022-10-06T02:30:14.442Z,11.93
2022-10-06T02:31:17.082Z,11.93
2022-10-06T02:32:18.596Z,11.93
2022-10-06T02:33:20.100Z,11.95
2022-10-06T02:34:21.907Z,11.97
2022-10-06T02:35:23.418Z,12.00
2022-10-06T02:36:24.927Z,12.05
2022-10-06T02:37:26.366Z,12.10
2022-10-06T02:38:28.984Z,12.16
2022-10-06T02:39:31.062Z,12.22
2022-10-06T02:40:32.773Z,12.27
2022-10-06T02:41:34.314Z,12.31
2022-10-06T02:42:37.568Z,12.36
2022-10-06T02:43:39.506Z,12.39
2022-10-06T02:44:41.414Z,12.41
2022-10-06T02:45:43.241Z,12.45
2022-10-06T02:46:44.866Z,12.50
2022-10-06T02:47:46.545Z,12.54
2022-10-06T02:48:48.332Z,12.56
2022-10-06T02:50:02.690Z,12.60
2022-10-06T02:51:09.700Z,12.62
2022-10-06T02:52:11.156Z,12.61
2022-10-06T02:53:13.242Z,12.62
2022-10-06T02:54:15.769Z,12.64
2022-10-06T02:55:17.308Z,12.65
2022-10-06T02:56:24.346Z,12.66
2022-10-06T02:57:26.491Z,12.64
2022-10-06T02:58:32.499Z,12.63
2022-10-06T02:59:34.127Z,12.61
2022-10-06T03:00:35.569Z,12.60
2022-10-06T03:01:37.200Z,12.59
2022-10-06T03:02:38.787Z,12.54
2022-10-06T03:03:41.120Z,12.50
2022-10-06T03:04:42.561Z,12.48
2022-10-06T03:05:43.989Z,12.44
2022-10-06T03:06:45.492Z,12.41
2022-10-06T03:07:46.903Z,12.38
2022-10-06T03:08:52.361Z,12.35
2022-10-06T03:09:53.824Z,12.34
2022-10-06T03:11:06.626Z,12.28
2022-10-06T03:12:08.413Z,12.26
2022-10-06T03:13:09.852Z,12.24
2022-10-06T03:14:11.631Z,12.20
2022-10-06T03:15:13.511Z,12.18
2022-10-06T03:16:26.468Z,12.16
2022-10-06T03:17:28.101Z,12.14
2022-10-06T03:18:31.438Z,12.15
2022-10-06T03:19:33.592Z,12.14
2022-10-06T03:20:35.412Z,12.07
2022-10-06T03:21:40.482Z,12.01
2022-10-06T03:22:41.914Z,11.97
2022-10-06T03:23:44.582Z,11.94
2022-10-06T03:24:46.351Z,11.90
2022-10-06T03:25:56.494Z,11.89
2022-10-06T03:26:58.272Z,11.81
2022-10-06T03:28:00.776Z,11.79
2022-10-06T03:29:02.598Z,11.77
2022-10-06T03:30:04.984Z,11.76
2022-10-06T03:31:07.309Z,11.75
2022-10-06T03:32:08.829Z,11.74
2022-10-06T03:33:10.239Z,11.71
2022-10-06T03:34:13.800Z,11.70
2022-10-06T03:35:15.370Z,11.67
2022-10-06T03:36:19.128Z,11.67
2022-10-06T03:37:20.664Z,11.64
2022-10-06T03:38:22.105Z,11.65
2022-10-06T03:39:23.914Z,11.63
2022-10-06T03:40:25.333Z,11.63
2022-10-06T03:41:37.716Z,11.61
2022-10-06T03:42:39.231Z,11.59
2022-10-06T03:43:43.159Z,11.60
2022-10-06T03:44:44.985Z,11.54
2022-10-06T03:45:56.792Z,11.53
2022-10-06T03:46:58.256Z,11.55
2022-10-06T03:48:00.422Z,11.53
2022-10-06T03:49:02.230Z,11.49
2022-10-06T03:50:04.240Z,11.48
2022-10-06T03:51:08.612Z,11.45
2022-10-06T03:52:10.273Z,11.41
2022-10-06T03:53:11.759Z,11.40
2022-10-06T03:54:13.200Z,11.42
2022-10-06T03:55:14.680Z,11.41
2022-10-06T03:56:28.201Z,11.43
2022-10-06T03:57:29.621Z,11.44
2022-10-06T03:58:33.112Z,11.49
2022-10-06T03:59:35.081Z,11.52
2022-10-06T04:00:36.518Z,11.52
2022-10-06T04:01:40.599Z,11.56
2022-10-06T04:02:42.104Z,11.58
2022-10-06T04:03:44.537Z,11.58
2022-10-06T04:04:46.351Z,11.59
2022-10-06T04:05:58.706Z,11.62
2022-10-06T04:07:00.149Z,11.65
2022-10-06T04:08:01.568Z,11.68
2022-10-06T04:09:05.009Z,11.70
2022-10-06T04:10:07.645Z,11.71
2022-10-06T04:11:21.093Z,11.73
2022-10-06T04:12:22.650Z,11.74
2022-10-06T04:13:24.143Z,11.76
2022-10-06T04:14:25.971Z,11.76
2022-10-06T04:15:27.407Z,11.77
2022-10-06T04:16:32.598Z,11.78
2022-10-06T04:17:34.170Z,11.78
2022-10-06T04:18:35.664Z,11.75
2022-10-06T04:19:37.459Z,11.76
2022-10-06T04:20:39.243Z,11.76
2022-10-06T04:21:43.394Z,11.77
2022-10-06T04:22:45.044Z,11.76
2022-10-06T04:23:46.685Z,11.75
2022-10-06T04:24:48.586Z,11.76
2022-10-06T04:25:55.157Z,11.75
2022-10-06T04:27:17.981Z,11.72
2022-10-06T04:28:19.485Z,11.71
2022-10-06T04:29:21.634Z,11.70
2022-10-06T04:30:23.408Z,11.68
2022-10-06T04:31:27.552Z,11.68
2022-10-06T04:32:29.641Z,11.69
2022-10-06T04:33:34.163Z,11.68
2022-10-06T04:34:35.952Z,11.70
2022-10-06T04:35:37.413Z,11.68
2022-10-06T04:36:41.343Z,11.66
2022-10-06T04:37:43.153Z,11.65
2022-10-06T04:38:44.646Z,11.63
2022-10-06T04:39:46.513Z,11.63
2022-10-06T04:40:48.007Z,11.63
2022-10-06T04:41:49.470Z,11.61
2022-10-06T04:42:50.917Z,11.57
2022-10-06T04:43:53.135Z,11.58
2022-10-06T04:44:54.935Z,11.58
2022-10-06T04:45:58.464Z,11.60
2022-10-06T04:47:01.233Z,11.59
2022-10-06T04:48:02.731Z,11.58
2022-10-06T04:49:04.218Z,11.55
2022-10-06T04:50:06.474Z,11.57
2022-10-06T04:51:16.005Z,11.57
2022-10-06T04:52:17.448Z,11.58
2022-10-06T04:53:18.930Z,11.56
2022-10-06T04:54:20.425Z,11.57
2022-10-06T04:55:21.850Z,11.58
2022-10-06T04:56:26.340Z,11.57
2022-10-06T04:57:27.817Z,11.60
2022-10-06T04:58:33.764Z,11.59
2022-10-06T04:59:54.019Z,11.59
2022-10-06T05:00:55.563Z,11.60
2022-10-06T05:01:58.152Z,11.61
2022-10-06T05:02:59.593Z,11.63
2022-10-06T05:04:02.841Z,11.64
2022-10-06T05:05:06.159Z,11.64
2022-10-06T05:06:11.472Z,11.66
2022-10-06T05:07:12.907Z,11.67
2022-10-06T05:08:14.517Z,11.68
2022-10-06T05:09:16.099Z,11.67
2022-10-06T05:10:17.905Z,11.70
2022-10-06T05:11:25.686Z,11.69
2022-10-06T05:12:31.064Z,11.70
2022-10-06T05:13:32.966Z,11.72
2022-10-06T05:14:34.757Z,11.71
2022-10-06T05:15:36.232Z,11.70
2022-10-06T05:16:38.323Z,11.70
2022-10-06T05:17:39.968Z,11.71
2022-10-06T05:18:42.076Z,11.72
2022-10-06T05:19:43.827Z,11.73
2022-10-06T05:21:00.242Z,11.73
2022-10-06T05:22:03.728Z,11.69
2022-10-06T05:23:07.345Z,11.71
2022-10-06T05:24:09.038Z,11.72
2022-10-06T05:25:10.848Z,11.75
2022-10-06T05:26:14.272Z,11.75
2022-10-06T05:27:15.709Z,11.76
2022-10-06T05:28:17.179Z,11.76
2022-10-06T05:29:18.647Z,11.76
2022-10-06T05:30:20.132Z,11.76
2022-10-06T05:31:31.631Z,11.78
2022-10-06T05:32:36.061Z,11.78
2022-10-06T05:33:38.196Z,11.79
2022-10-06T05:34:39.958Z,11.85
2022-10-06T05:35:51.328Z,11.86
2022-10-06T05:36:52.838Z,11.90
2022-10-06T05:37:54.577Z,11.91
2022-10-06T05:38:57.425Z,11.91
2022-10-06T05:39:59.183Z,11.92
2022-10-06T05:41:13.938Z,11.92
2022-10-06T05:42:15.394Z,11.92
2022-10-06T05:43:18.147Z,11.94
2022-10-06T05:44:19.577Z,11.97
2022-10-06T05:45:21.468Z,12.00
2022-10-06T05:46:28.015Z,12.00
2022-10-06T05:47:29.440Z,12.01
2022-10-06T05:48:31.673Z,12.02
2022-10-06T05:49:33.851Z,12.01
2022-10-06T05:50:35.284Z,12.01
2022-10-06T05:51:38.843Z,12.03
2022-10-06T05:52:40.493Z,12.03
2022-10-06T05:53:42.236Z,12.03
2022-10-06T05:54:43.990Z,12.05
2022-10-06T05:55:45.451Z,12.05
2022-10-06T05:56:46.931Z,12.09
2022-10-06T05:57:48.368Z,12.11
2022-10-06T05:58:51.988Z,12.14
2022-10-06T05:59:53.740Z,12.15
2022-10-06T06:00:55.171Z,12.18
2022-10-06T06:01:57.070Z,12.21
2022-10-06T06:02:58.617Z,12.26
2022-10-06T06:04:12.200Z,12.32
2022-10-06T06:05:14.079Z,12.34
2022-10-06T06:06:16.859Z,12.38
2022-10-06T06:07:18.335Z,12.39
2022-10-06T06:08:19.842Z,12.42
2022-10-06T06:09:21.927Z,12.46
2022-10-06T06:10:23.674Z,12.48
2022-10-06T06:11:27.627Z,12.47
2022-10-06T06:12:29.072Z,12.50
2022-10-06T06:13:30.527Z,12.52
2022-10-06T06:14:50.911Z,12.54
2022-10-06T06:16:01.765Z,12.57
2022-10-06T06:17:03.304Z,12.56
2022-10-06T06:18:06.116Z,12.59
2022-10-06T06:19:10.998Z,12.60
2022-10-06T06:20:12.973Z,12.61
2022-10-06T06:21:14.623Z,12.62
2022-10-06T06:22:16.085Z,12.63
2022-10-06T06:23:17.522Z,12.64
2022-10-06T06:24:19.031Z,12.65
2022-10-06T06:25:20.561Z,12.66
2022-10-06T06:26:23.589Z,12.66
2022-10-06T06:27:26.173Z,12.68
2022-10-06T06:28:29.770Z,12.69
2022-10-06T06:29:31.412Z,12.75
2022-10-06T06:30:33.808Z,12.78
2022-10-06T06:31:38.035Z,12.81
2022-10-06T06:32:40.171Z,12.83
2022-10-06T06:33:42.128Z,12.85
2022-10-06T06:34:43.912Z,12.86
2022-10-06T06:35:45.338Z,12.88
2022-10-06T06:36:53.591Z,12.89
2022-10-06T06:37:55.259Z,12.90
2022-10-06T06:38:58.130Z,12.90
2022-10-06T06:39:59.922Z,12.89
2022-10-06T06:41:01.350Z,12.89
2022-10-06T06:42:05.099Z,12.89
2022-10-06T06:43:06.604Z,12.89
2022-10-06T06:44:11.169Z,12.89
2022-10-06T06:45:14.029Z,12.91
2022-10-06T06:46:16.433Z,12.90
2022-10-06T06:47:19.881Z,12.90
2022-10-06T06:48:25.180Z,12.88
2022-10-06T06:49:26.713Z,12.89
2022-10-06T06:50:29.121Z,12.90
2022-10-06T06:51:35.540Z,12.92
2022-10-06T06:52:37.398Z,12.92
2022-10-06T06:53:40.232Z,12.93
2022-10-06T06:54:42.049Z,12.95
2022-10-06T06:55:50.885Z,12.99
2022-10-06T06:56:52.439Z,13.03
2022-10-06T06:57:53.947Z,13.05
2022-10-06T06:58:55.386Z,13.11
2022-10-06T06:59:57.810Z,13.15
2022-10-06T07:01:06.489Z,13.19
2022-10-06T07:02:10.034Z,13.21
2022-10-06T07:03:24.106Z,13.24
2022-10-06T07:04:37.276Z,13.33
2022-10-06T07:05:40.311Z,13.36
2022-10-06T07:06:46.481Z,13.38
2022-10-06T07:07:48.110Z,13.41
2022-10-06T07:08:49.749Z,13.42
2022-10-06T07:09:51.283Z,13.47
2022-10-06T07:10:52.974Z,13.50
2022-10-06T07:11:55.182Z,13.53
2022-10-06T07:12:56.618Z,13.55
2022-10-06T07:14:03.543Z,13.57
2022-10-06T07:15:24.263Z,13.61
2022-10-06T07:16:44.297Z,13.65
2022-10-06T07:18:04.170Z,13.70
2022-10-06T07:19:25.341Z,13.75
2022-10-06T07:20:45.199Z,13.81
2022-10-06T07:22:12.057Z,13.84
2022-10-06T07:23:37.479Z,13.89
2022-10-06T07:24:58.004Z,13.93
2022-10-06T07:25:59.437Z,13.97
2022-10-06T07:27:01.966Z,13.95
2022-10-06T07:28:04.025Z,13.92
2022-10-06T07:29:05.525Z,13.93
2022-10-06T07:30:09.635Z,13.97
2022-10-06T07:31:11.138Z,14.00
2022-10-06T07:32:13.306Z,14.04
2022-10-06T07:33:15.806Z,14.07
2022-10-06T07:34:17.286Z,14.11
2022-10-06T07:35:20.392Z,14.06
2022-10-06T07:36:22.476Z,14.08
2022-10-06T07:37:24.153Z,14.10
2022-10-06T07:38:26.004Z,14.12
2022-10-06T07:39:27.490Z,14.15
2022-10-06T07:40:29.243Z,14.14
2022-10-06T07:41:31.606Z,14.17
2022-10-06T07:42:48.261Z,14.19
2022-10-06T07:43:50.579Z,14.17
2022-10-06T07:45:11.247Z,14.16
2022-10-06T07:46:14.444Z,14.20
2022-10-06T07:47:15.963Z,14.21
2022-10-06T07:48:19.884Z,14.24
2022-10-06T07:49:21.912Z,14.25
2022-10-06T07:50:23.974Z,14.21
2022-10-06T07:51:27.261Z,14.24
2022-10-06T07:52:28.926Z,14.28
2022-10-06T07:53:30.371Z,14.30
2022-10-06T07:54:31.881Z,14.33
2022-10-06T07:55:33.782Z,14.31
2022-10-06T07:56:35.234Z,14.36
2022-10-06T07:57:36.787Z,14.41
2022-10-06T07:58:38.835Z,14.44
2022-10-06T07:59:41.583Z,14.43
2022-10-06T08:00:44.324Z,14.44
2022-10-06T08:01:46.035Z,14.48
2022-10-06T08:02:47.656Z,14.49
2022-10-06T08:03:50.566Z,14.47
2022-10-06T08:04:52.526Z,14.48
2022-10-06T08:05:58.926Z,14.50
2022-10-06T08:07:00.478Z,14.49
2022-10-06T08:08:02.076Z,14.47
2022-10-06T08:09:03.921Z,14.50
2022-10-06T08:10:05.828Z,14.53
2022-10-06T08:11:08.549Z,14.56
2022-10-06T08:12:28.451Z,14.57
2022-10-06T08:13:32.229Z,14.59
2022-10-06T08:14:33.689Z,14.61
2022-10-06T08:15:35.677Z,14.64
2022-10-06T08:16:37.258Z,14.62
2022-10-06T08:17:38.827Z,14.66
2022-10-06T08:18:46.334Z,14.69
2022-10-06T08:19:48.786Z,14.71
2022-10-06T08:20:50.346Z,14.72
2022-10-06T08:21:52.142Z,14.75
2022-10-06T08:22:54.525Z,14.76
2022-10-06T08:23:57.712Z,14.77
2022-10-06T08:25:07.319Z,14.79
2022-10-06T08:26:13.776Z,14.79
2022-10-06T08:27:15.226Z,14.80
2022-10-06T08:28:16.824Z,14.77
2022-10-06T08:29:18.425Z,14.79
2022-10-06T08:30:20.313Z,14.81
2022-10-06T08:31:23.092Z,14.81
2022-10-06T08:32:24.644Z,14.82
2022-10-06T08:33:26.986Z,14.78
2022-10-06T08:34:28.625Z,14.77
2022-10-06T08:35:33.376Z,14.79
2022-10-06T08:36:34.944Z,14.80
2022-10-06T08:37:36.605Z,14.84
2022-10-06T08:38:40.630Z,14.87
2022-10-06T08:39:44.712Z,14.90
2022-10-06T08:40:47.098Z,14.89
2022-10-06T08:41:51.937Z,14.93
2022-10-06T08:42:58.655Z,14.95
2022-10-06T08:44:05.474Z,14.96
2022-10-06T08:45:13.781Z,14.97
2022-10-06T08:46:18.713Z,14.96
2022-10-06T08:47:24.439Z,14.96
2022-10-06T08:48:30.102Z,14.98
2022-10-06T08:49:37.252Z,15.03
2022-10-06T08:50:47.934Z,15.07
2022-10-06T08:52:10.088Z,15.07
2022-10-06T08:53:21.697Z,15.09
2022-10-06T08:54:48.377Z,15.14
2022-10-06T08:56:09.171Z,15.24
2022-10-06T08:57:24.966Z,15.30
2022-10-06T08:58:45.222Z,15.40
2022-10-06T08:59:49.609Z,15.46
2022-10-06T09:00:56.824Z,15.51
2022-10-06T09:01:58.560Z,15.56
2022-10-06T09:03:02.183Z,15.54
2022-10-06T09:04:07.730Z,15.54
2022-10-06T09:05:13.663Z,15.61
2022-10-06T09:06:33.071Z,15.66
2022-10-06T09:08:08.963Z,15.67
2022-10-06T09:09:37.729Z,15.70
2022-10-06T09:10:54.062Z,15.73
2022-10-06T09:12:19.785Z,15.66
2022-10-06T09:13:28.662Z,15.60
2022-10-06T09:14:37.903Z,15.66
2022-10-06T09:15:51.064Z,15.72
2022-10-06T09:17:00.840Z,15.70
2022-10-06T09:18:17.991Z,15.74
2022-10-06T09:19:33.486Z,15.73
2022-10-06T09:20:47.394Z,15.82
2022-10-06T09:21:53.336Z,15.94
2022-10-06T09:22:56.660Z,16.03
2022-10-06T09:24:05.043Z,16.12
2022-10-06T09:25:26.831Z,16.21
2022-10-06T09:26:30.496Z,16.22
2022-10-06T09:27:33.924Z,16.21
2022-10-06T09:28:35.808Z,16.32
2022-10-06T09:29:37.697Z,16.44
2022-10-06T09:30:41.782Z,16.51
2022-10-06T09:31:50.882Z,16.51
2022-10-06T09:32:59.096Z,16.51
2022-10-06T09:34:18.894Z,16.50
2022-10-06T09:35:22.804Z,16.50
2022-10-06T09:36:24.312Z,16.45
2022-10-06T09:37:26.974Z,16.37
2022-10-06T09:38:47.707Z,16.26
2022-10-06T09:39:51.269Z,16.33
2022-10-06T09:40:54.548Z,16.39
2022-10-06T09:41:56.528Z,16.45
2022-10-06T09:42:58.041Z,16.37
2022-10-06T09:44:05.077Z,16.49
2022-10-06T09:45:24.987Z,16.57
2022-10-06T09:46:41.863Z,16.59
2022-10-06T09:47:45.531Z,16.58
2022-10-06T09:48:47.328Z,16.61
2022-10-06T09:50:21.956Z,16.67
2022-10-06T09:51:24.747Z,16.70
2022-10-06T09:52:26.224Z,16.70
2022-10-06T09:53:27.753Z,16.69
2022-10-06T09:54:30.883Z,16.78
2022-10-06T09:55:34.713Z,16.87
2022-10-06T09:56:43.223Z,16.85
2022-10-06T09:57:50.177Z,16.86
2022-10-06T09:58:56.449Z,16.88
2022-10-06T10:00:00.391Z,16.89
2022-10-06T10:01:12.644Z,16.92
2022-10-06T10:02:30.480Z,16.88
2022-10-06T10:04:18.702Z,16.71
2022-10-06T10:05:21.244Z,16.60
2022-10-06T10:06:28.194Z,16.49
2022-10-06T10:07:31.344Z,16.37
2022-10-06T10:08:32.852Z,16.36
2022-10-06T10:09:34.401Z,16.29
2022-10-06T10:10:37.883Z,16.26
2022-10-06T10:11:58.155Z,16.27
2022-10-06T10:13:00.774Z,16.34
2022-10-06T10:14:02.203Z,16.35
2022-10-06T10:15:24.709Z,16.45
2022-10-06T10:16:28.600Z,16.51
2022-10-06T10:17:32.440Z,16.34
2022-10-06T10:18:35.480Z,16.39
2022-10-06T10:19:43.103Z,16.48
2022-10-06T10:20:56.046Z,16.36
2022-10-06T10:21:57.620Z,16.52
2022-10-06T10:23:02.749Z,16.59
2022-10-06T10:24:14.981Z,16.68
2022-10-06T10:25:16.360Z,16.68
2022-10-06T10:26:31.472Z,16.75
2022-10-06T10:27:37.165Z,16.73
2022-10-06T10:29:04.517Z,16.74
2022-10-06T10:30:10.402Z,16.71
2022-10-06T10:31:19.213Z,16.62
2022-10-06T10:32:40.257Z,16.65
2022-10-06T10:34:11.818Z,16.68
2022-10-06T10:35:37.268Z,16.75
2022-10-06T10:37:16.429Z,16.81
2022-10-06T10:38:23.224Z,16.63
2022-10-06T10:39:35.900Z,16.75
2022-10-06T10:41:04.706Z,16.87
2022-10-06T10:42:27.524Z,16.94
2022-10-06T10:43:33.779Z,16.99
2022-10-06T10:44:41.319Z,17.06
2022-10-06T10:45:50.908Z,17.10
2022-10-06T10:46:56.026Z,17.08
2022-10-06T10:47:59.917Z,17.12
2022-10-06T10:49:12.315Z,17.14
2022-10-06T10:50:28.232Z,17.16
2022-10-06T10:51:38.005Z,17.08
2022-10-06T10:52:42.852Z,17.05
2022-10-06T10:53:50.590Z,17.11
2022-10-06T10:55:01.034Z,17.17
2022-10-06T10:56:03.765Z,17.25
2022-10-06T10:57:14.136Z,17.13
2022-10-06T10:58:27.739Z,17.23
2022-10-06T10:59:52.077Z,17.32
2022-10-06T11:00:58.126Z,17.48
2022-10-06T11:02:05.017Z,17.80
2022-10-06T11:03:10.814Z,18.32
2022-10-06T11:04:13.851Z,18.75
2022-10-06T11:05:18.174Z,18.92
2022-10-06T11:06:38.506Z,18.90
2022-10-06T11:07:53.392Z,18.99
2022-10-06T11:09:09.219Z,18.96
2022-10-06T11:10:10.563Z,18.71
2022-10-06T11:11:25.116Z,18.66
2022-10-06T11:12:45.320Z,18.56
2022-10-06T11:13:54.175Z,18.41
2022-10-06T11:15:01.675Z,18.44
2022-10-06T11:16:43.294Z,18.34
2022-10-06T11:17:46.811Z,18.35
2022-10-06T11:19:08.584Z,18.26
2022-10-06T11:20:12.916Z,18.35
2022-10-06T11:21:24.326Z,18.14
2022-10-06T11:22:47.406Z,17.88
2022-10-06T11:24:15.568Z,17.95
2022-10-06T11:25:44.636Z,17.59
2022-10-06T11:26:55.513Z,17.54
2022-10-06T11:28:20.580Z,17.58
2022-10-06T11:29:34.349Z,17.52
2022-10-06T11:30:50.374Z,17.41
2022-10-06T11:32:10.613Z,17.29
2022-10-06T11:33:20.352Z,17.37
2022-10-06T11:34:21.807Z,17.44
2022-10-06T11:35:29.801Z,17.41
2022-10-06T11:36:47.046Z,17.35
2022-10-06T11:37:55.523Z,17.39
2022-10-06T11:39:06.835Z,17.36
2022-10-06T11:41:06.166Z,17.45
2022-10-06T11:43:46.529Z,17.43
2022-10-06T11:44:55.346Z,17.43
2022-10-06T11:46:31.793Z,17.52
2022-10-06T11:47:55.307Z,17.59
2022-10-06T11:49:36.923Z,17.62
2022-10-06T11:50:40.277Z,17.60
2022-10-06T11:51:42.053Z,17.67
2022-10-06T11:52:45.505Z,17.71
2022-10-06T11:53:47.461Z,17.70
2022-10-06T11:54:57.130Z,17.67
2022-10-06T11:56:34.993Z,17.67
2022-10-06T11:58:12.635Z,17.68
2022-10-06T11:59:25.829Z,17.75
2022-10-06T12:00:33.375Z,17.86
2022-10-06T12:01:35.334Z,17.88
2022-10-06T12:02:41.800Z,17.90
2022-10-06T12:04:10.499Z,17.85
2022-10-06T12:06:48.903Z,17.84
2022-10-06T12:07:56.213Z,17.88
2022-10-06T12:08:58.368Z,17.96
2022-10-06T12:10:28.496Z,17.95
2022-10-06T12:11:42.675Z,18.04
2022-10-06T12:13:01.803Z,18.05
2022-10-06T12:16:07.024Z,18.16
2022-10-06T12:18:04.343Z,18.21
2022-10-06T12:19:19.376Z,18.22
2022-10-06T12:20:23.682Z,18.31
2022-10-06T12:21:32.895Z,18.49
2022-10-06T12:22:47.241Z,18.42
2022-10-06T12:24:01.138Z,18.25
2022-10-06T12:25:32.613Z,18.40
2022-10-06T12:26:50.353Z,18.47
2022-10-06T12:28:40.630Z,18.44
2022-10-06T12:29:48.949Z,18.64
2022-10-06T12:31:15.780Z,18.76
2022-10-06T12:32:46.390Z,18.66
2022-10-06T12:33:48.818Z,18.57
2022-10-06T12:35:09.744Z,18.51
2022-10-06T12:36:16.890Z,18.61
2022-10-06T12:37:43.195Z,18.70
2022-10-06T12:39:05.209Z,18.65
2022-10-06T12:40:47.294Z,18.53
2022-10-06T12:41:58.485Z,18.76
2022-10-06T12:43:18.114Z,18.86
2022-10-06T12:44:25.703Z,18.82
2022-10-06T12:45:27.130Z,18.86
2022-10-06T12:46:36.745Z,18.73
2022-10-06T12:47:43.438Z,18.83
2022-10-06T12:49:02.687Z,18.96
2022-10-06T12:50:27.102Z,18.90
2022-10-06T12:51:35.088Z,18.91
2022-10-06T12:52:46.115Z,19.09
2022-10-06T12:53:53.404Z,19.21
2022-10-06T12:55:07.368Z,19.20
2022-10-06T12:56:33.074Z,19.27
2022-10-06T12:57:52.073Z,19.44
2022-10-06T12:58:54.183Z,19.47
2022-10-06T12:59:55.595Z,19.53
2022-10-06T13:01:09.481Z,19.65
2022-10-06T13:02:21.917Z,19.70
2022-10-06T13:03:25.031Z,19.69
2022-10-06T13:04:36.768Z,19.68
2022-10-06T13:05:38.422Z,19.74
2022-10-06T13:06:49.592Z,19.86
2022-10-06T13:08:04.847Z,19.80
2022-10-06T13:09:14.285Z,20.00
2022-10-06T13:10:15.677Z,20.17
2022-10-06T13:11:25.276Z,20.27
2022-10-06T13:12:36.573Z,20.40
2022-10-06T13:13:45.343Z,20.57
2022-10-06T13:14:48.210Z,20.61
2022-10-06T13:15:50.824Z,20.51
2022-10-06T13:16:52.573Z,20.61
2022-10-06T13:18:16.167Z,20.62
2022-10-06T13:19:28.207Z,20.87
2022-10-06T13:20:55.428Z,21.15
2022-10-06T13:21:57.799Z,21.13
2022-10-06T13:23:08.698Z,21.39
2022-10-06T13:24:20.527Z,21.66
2022-10-06T13:25:22.066Z,21.66
2022-10-06T13:26:28.583Z,21.78
2022-10-06T13:27:30.521Z,22.02
2022-10-06T13:28:43.672Z,22.27
2022-10-06T13:29:45.253Z,22.22
2022-10-06T13:30:58.454Z,22.11
2022-10-06T13:32:02.198Z,22.37
2022-10-06T13:33:03.688Z,22.56
2022-10-06T13:34:10.306Z,22.80
2022-10-06T13:35:12.620Z,22.96
2022-10-06T13:36:15.178Z,22.91
2022-10-06T13:37:16.797Z,22.94
2022-10-06T13:38:19.121Z,23.15
2022-10-06T13:39:22.976Z,23.28
2022-10-06T13:40:44.068Z,23.32
2022-10-06T13:41:54.342Z,23.26
2022-10-06T13:42:57.781Z,23.17
2022-10-06T13:44:05.916Z,23.28
2022-10-06T13:45:14.691Z,23.15
2022-10-06T13:46:21.043Z,23.14
2022-10-06T13:47:25.568Z,22.52
2022-10-06T13:48:28.446Z,22.68
2022-10-06T13:49:32.894Z,22.92
2022-10-06T13:50:36.329Z,23.13
2022-10-06T13:51:38.251Z,23.09
2022-10-06T13:52:48.585Z,23.14
2022-10-06T13:53:51.907Z,23.34
2022-10-06T13:54:56.425Z,23.41
2022-10-06T13:55:58.652Z,23.54
2022-10-06T13:57:00.198Z,23.05
2022-10-06T13:58:04.934Z,22.94
2022-10-06T13:59:31.000Z,23.18
2022-10-06T14:00:54.463Z,23.44
2022-10-06T14:01:58.701Z,23.60
2022-10-06T14:03:05.963Z,23.52
2022-10-06T14:04:18.378Z,23.43
2022-10-06T14:05:31.395Z,23.48
2022-10-06T14:06:33.198Z,23.61
2022-10-06T14:07:42.893Z,23.82
2022-10-06T14:08:54.153Z,23.71
2022-10-06T14:09:55.638Z,23.68
2022-10-06T14:11:03.139Z,23.90
2022-10-06T14:12:15.642Z,24.04
2022-10-06T14:13:24.507Z,24.20
2022-10-06T14:14:25.829Z,24.15
2022-10-06T14:15:31.258Z,24.19
2022-10-06T14:16:33.057Z,24.34
2022-10-06T14:17:34.560Z,24.46
2022-10-06T14:18:43.152Z,24.57
2022-10-06T14:19:45.371Z,24.67